Time;durP1;ratioP1;P1;durP2;ratioP2;P2;SDS_P1;SDS_P2;PMS_P1;PMS_P2;Temp;Humidity;BMP_temperature;BMP_pressure;BME280_temperature;BME280_humidity;BME280_pressure;Samples;Min_cycle;Max_cycle;Signal;HPM_P1;HPM_P2
2024/02/25 00:01:00;;;;;;;4.10;2.20;;;;;;;;;;5051175;28;20094;-60
2024/02/25 00:03:27;;;;;;;2.75;1.60;;;;;;;;;;5057022;28;20132;-53
2024/02/25 00:05:55;;;;;;;4.22;2.10;;;;;;;;;;5058023;28;20128;-58
2024/02/25 00:08:22;;;;;;;3.53;2.08;;;;;;;;;;5055399;28;20128;-56
2024/02/25 00:10:49;;;;;;;3.58;1.80;;;;;;;;;;5053467;28;20052;-58
2024/02/25 00:13:16;;;;;;;4.72;2.00;;;;;;;;;;5060186;28;20048;-55
2024/02/25 00:15:43;;;;;;;4.40;1.95;;;;;;;;;;5053775;28;20087;-55
2024/02/25 00:18:09;;;;;;;4.18;1.77;;;;;;;;;;5050247;28;20048;-58
2024/02/25 00:20:36;;;;;;;3.67;1.88;;;;;;;;;;5052772;28;20408;-54
2024/02/25 00:23:04;;;;;;;3.22;1.90;;;;;;;;;;5051667;28;20460;-56
2024/02/25 00:25:31;;;;;;;5.45;2.00;;;;;;;;;;5051082;28;20139;-55
2024/02/25 00:27:58;;;;;;;4.10;1.95;;;;;;;;;;5051661;28;20104;-53
2024/02/25 00:30:24;;;;;;;3.55;1.92;;;;;;;;;;5051628;28;20047;-56
2024/02/25 00:32:51;;;;;;;5.30;1.98;;;;;;;;;;5052314;28;20075;-56
2024/02/25 00:35:19;;;;;;;4.93;2.55;;;;;;;;;;5051080;28;20511;-57
2024/02/25 00:37:46;;;;;;;4.65;2.20;;;;;;;;;;5051574;28;20048;-56
2024/02/25 00:40:14;;;;;;;5.22;2.97;;;;;;;;;;5051330;28;20076;-57
2024/02/25 00:42:41;;;;;;;5.15;3.00;;;;;;;;;;5051369;28;20076;-57
2024/02/25 00:45:08;;;;;;;5.68;2.70;;;;;;;;;;5051138;28;20464;-57
2024/02/25 00:47:35;;;;;;;4.00;2.53;;;;;;;;;;5051503;28;20570;-56
2024/02/25 00:50:02;;;;;;;5.50;3.30;;;;;;;;;;5051204;28;20088;-55
2024/02/25 00:52:31;;;;;;;5.53;3.20;;;;;;;;;;5051250;28;20060;-55
2024/02/25 00:54:58;;;;;;;5.22;3.13;;;;;;;;;;5050805;28;20071;-54
2024/02/25 00:57:26;;;;;;;7.10;3.67;;;;;;;;;;5046690;28;20102;-56
2024/02/25 00:59:53;;;;;;;5.22;3.58;;;;;;;;;;5051261;28;20134;-56
2024/02/25 01:02:20;;;;;;;5.55;3.80;;;;;;;;;;5051026;28;20083;-59
2024/02/25 01:04:46;;;;;;;8.32;4.00;;;;;;;;;;5050937;28;20087;-58
2024/02/25 01:07:13;;;;;;;6.13;3.80;;;;;;;;;;5051044;28;20099;-56
2024/02/25 01:09:40;;;;;;;5.60;3.92;;;;;;;;;;5050965;28;20128;-55
2024/02/25 01:12:07;;;;;;;8.18;4.88;;;;;;;;;;5046809;28;20049;-58
2024/02/25 01:14:35;;;;;;;7.22;4.13;;;;;;;;;;5050856;28;20114;-53
2024/02/25 01:17:01;;;;;;;8.75;5.20;;;;;;;;;;5051235;28;20049;-55
2024/02/25 01:19:28;;;;;;;7.85;4.60;;;;;;;;;;5050728;28;20472;-53
2024/02/25 01:21:55;;;;;;;7.13;5.28;;;;;;;;;;5051310;28;20076;-59
2024/02/25 01:24:21;;;;;;;7.40;4.03;;;;;;;;;;5050975;28;20088;-52
2024/02/25 01:26:48;;;;;;;19.48;11.20;;;;;;;;;;5050690;28;20077;-55
2024/02/25 01:29:15;;;;;;;24.50;15.02;;;;;;;;;;5052529;28;20496;-58
2024/02/25 01:31:43;;;;;;;17.20;10.15;;;;;;;;;;5054976;28;20041;-59
2024/02/25 01:34:10;;;;;;;12.57;8.20;;;;;;;;;;5054648;28;20081;-55
2024/02/25 01:36:37;;;;;;;9.88;5.95;;;;;;;;;;5060983;28;20124;-56
2024/02/25 01:39:04;;;;;;;5.90;3.78;;;;;;;;;;5053947;28;20102;-57
2024/02/25 01:41:31;;;;;;;5.60;3.30;;;;;;;;;;5049996;28;20085;-58
2024/02/25 01:43:57;;;;;;;5.63;3.75;;;;;;;;;;5054116;28;20056;-56
2024/02/25 01:46:24;;;;;;;5.13;3.00;;;;;;;;;;5054036;28;20476;-57
2024/02/25 01:48:53;;;;;;;6.05;4.05;;;;;;;;;;5054108;28;20049;-59
2024/02/25 01:51:21;;;;;;;5.20;3.63;;;;;;;;;;5054193;28;20128;-55
2024/02/25 01:53:50;;;;;;;5.45;3.20;;;;;;;;;;5054272;28;20120;-54
2024/02/25 01:56:17;;;;;;;5.63;3.47;;;;;;;;;;5049288;28;20041;-54
2024/02/25 01:58:45;;;;;;;5.97;3.17;;;;;;;;;;5057913;28;20106;-51
2024/02/25 02:01:14;;;;;;;4.70;3.03;;;;;;;;;;5047794;28;20084;-56
2024/02/25 02:03:41;;;;;;;5.68;3.00;;;;;;;;;;5046767;28;20672;-57
2024/02/25 02:06:09;;;;;;;5.85;3.70;;;;;;;;;;5054313;28;20045;-56
2024/02/25 02:08:37;;;;;;;6.80;4.18;;;;;;;;;;5044280;28;20430;-55
2024/02/25 02:11:15;;;;;;;6.18;4.30;;;;;;;;;;5049630;28;20804;-57
2024/02/25 02:13:41;;;;;;;5.85;3.65;;;;;;;;;;5038146;28;20049;-55
2024/02/25 02:16:12;;;;;;;5.68;3.65;;;;;;;;;;5054155;28;20095;-52
2024/02/25 02:18:39;;;;;;;5.53;3.80;;;;;;;;;;5046715;28;20083;-53
2024/02/25 02:21:08;;;;;;;4.78;2.88;;;;;;;;;;5053644;28;20118;-55
2024/02/25 02:23:35;;;;;;;5.50;3.20;;;;;;;;;;5053478;28;20522;-54
2024/02/25 02:26:02;;;;;;;5.60;3.15;;;;;;;;;;5053430;28;20465;-53
2024/02/25 02:28:28;;;;;;;6.90;3.90;;;;;;;;;;5053314;28;20079;-56
2024/02/25 02:30:55;;;;;;;5.35;3.15;;;;;;;;;;5053312;28;20081;-55
2024/02/25 02:33:22;;;;;;;4.07;2.75;;;;;;;;;;5053141;28;20128;-56
2024/02/25 02:35:49;;;;;;;5.32;3.30;;;;;;;;;;5053194;28;20076;-56
2024/02/25 02:38:18;;;;;;;4.68;3.20;;;;;;;;;;5053261;28;20702;-54
2024/02/25 02:40:45;;;;;;;6.22;3.83;;;;;;;;;;5052451;28;20053;-55
2024/02/25 02:43:12;;;;;;;5.18;3.30;;;;;;;;;;5052852;28;20103;-54
2024/02/25 02:45:39;;;;;;;5.30;3.20;;;;;;;;;;5053473;28;20520;-57
2024/02/25 02:48:08;;;;;;;6.15;3.83;;;;;;;;;;5052883;28;20052;-53
2024/02/25 02:50:34;;;;;;;5.40;3.70;;;;;;;;;;5052720;28;20045;-56
2024/02/25 02:53:01;;;;;;;5.75;3.45;;;;;;;;;;5052734;28;20128;-56
2024/02/25 02:55:30;;;;;;;7.10;3.90;;;;;;;;;;5054502;28;20076;-52
2024/02/25 02:57:56;;;;;;;5.38;3.45;;;;;;;;;;5052520;28;20135;-54
2024/02/25 03:00:23;;;;;;;5.85;3.60;;;;;;;;;;5052414;28;20077;-53
2024/02/25 03:02:50;;;;;;;6.72;4.05;;;;;;;;;;5052685;28;20094;-57
2024/02/25 03:05:16;;;;;;;6.90;3.97;;;;;;;;;;5052400;28;20547;-54
2024/02/25 03:07:48;;;;;;;6.53;4.22;;;;;;;;;;5052711;28;20076;-56
2024/02/25 03:10:16;;;;;;;8.95;4.55;;;;;;;;;;5052384;28;20056;-53
2024/02/25 03:12:44;;;;;;;7.00;4.45;;;;;;;;;;5048477;28;20069;-55
2024/02/25 03:15:11;;;;;;;5.47;3.65;;;;;;;;;;5052270;28;20092;-57
2024/02/25 03:17:39;;;;;;;9.88;4.50;;;;;;;;;;5044585;28;20088;-56
2024/02/25 03:20:08;;;;;;;7.45;4.18;;;;;;;;;;5052429;28;20091;-51
2024/02/25 03:22:34;;;;;;;7.18;4.05;;;;;;;;;;5052206;28;20048;-55
2024/02/25 03:25:02;;;;;;;4.95;3.30;;;;;;;;;;5051898;28;20049;-54
2024/02/25 03:27:29;;;;;;;5.38;3.47;;;;;;;;;;5068582;28;20059;-57
2024/02/25 03:29:57;;;;;;;5.15;3.30;;;;;;;;;;5049562;28;20448;-51
2024/02/25 03:32:24;;;;;;;4.70;2.95;;;;;;;;;;5050634;28;20122;-54
2024/02/25 03:34:50;;;;;;;5.05;3.03;;;;;;;;;;5051864;28;20137;-50
2024/02/25 03:37:17;;;;;;;6.55;3.00;;;;;;;;;;5052093;28;20091;-53
2024/02/25 03:39:44;;;;;;;5.53;3.13;;;;;;;;;;5050104;28;20460;-55
2024/02/25 03:42:11;;;;;;;6.13;3.55;;;;;;;;;;5052011;28;20057;-51
2024/02/25 03:44:38;;;;;;;5.82;3.15;;;;;;;;;;5051858;28;20048;-54
2024/02/25 03:47:06;;;;;;;5.78;3.78;;;;;;;;;;5051772;28;20117;-55
2024/02/25 03:49:33;;;;;;;5.97;3.58;;;;;;;;;;5051616;28;20077;-56
2024/02/25 03:52:00;;;;;;;5.85;3.50;;;;;;;;;;5051857;28;20455;-53
2024/02/25 03:54:26;;;;;;;5.47;3.83;;;;;;;;;;5051809;28;20084;-56
2024/02/25 03:56:53;;;;;;;7.00;4.63;;;;;;;;;;5051770;28;20152;-52
2024/02/25 03:59:20;;;;;;;7.32;4.30;;;;;;;;;;5049894;28;20072;-58
2024/02/25 04:01:46;;;;;;;6.43;4.22;;;;;;;;;;5060162;28;20582;-53
2024/02/25 04:04:14;;;;;;;5.72;4.13;;;;;;;;;;5051585;28;20119;-57
2024/02/25 04:06:41;;;;;;;6.97;4.40;;;;;;;;;;5056601;28;20075;-57
2024/02/25 04:09:08;;;;;;;6.18;4.22;;;;;;;;;;5055894;28;20131;-51
2024/02/25 04:11:35;;;;;;;8.13;4.00;;;;;;;;;;5049468;28;20052;-53
2024/02/25 04:14:02;;;;;;;4.72;3.50;;;;;;;;;;5051210;28;20068;-57
2024/02/25 04:16:29;;;;;;;5.40;3.75;;;;;;;;;;5055577;28;20144;-54
2024/02/25 04:18:57;;;;;;;6.88;4.10;;;;;;;;;;5053184;28;20056;-57
2024/02/25 04:21:25;;;;;;;5.03;3.67;;;;;;;;;;5054870;28;20523;-56
2024/02/25 04:23:52;;;;;;;6.30;3.55;;;;;;;;;;5063782;28;20128;-59
2024/02/25 04:26:18;;;;;;;6.18;3.88;;;;;;;;;;5059146;28;20124;-58
2024/02/25 04:28:44;;;;;;;7.38;4.57;;;;;;;;;;5051660;28;20481;-55
2024/02/25 04:31:11;;;;;;;6.63;4.20;;;;;;;;;;5051405;28;20091;-54
2024/02/25 04:33:38;;;;;;;5.70;3.85;;;;;;;;;;5055143;28;20320;-52
2024/02/25 04:36:04;;;;;;;6.82;4.00;;;;;;;;;;5055730;28;20468;-56
2024/02/25 04:38:32;;;;;;;5.80;3.63;;;;;;;;;;5053531;28;20478;-54
2024/02/25 04:41:01;;;;;;;6.25;4.13;;;;;;;;;;5045978;28;20083;-57
2024/02/25 04:43:28;;;;;;;9.32;6.28;;;;;;;;;;5049758;28;20048;-55
2024/02/25 04:45:54;;;;;;;7.47;4.20;;;;;;;;;;5051209;28;20132;-55
2024/02/25 04:48:21;;;;;;;4.20;2.78;;;;;;;;;;5050971;28;20076;-56
2024/02/25 04:50:48;;;;;;;5.35;3.42;;;;;;;;;;5051295;28;20076;-56
2024/02/25 04:53:14;;;;;;;4.55;2.67;;;;;;;;;;5050674;28;20480;-54
2024/02/25 04:55:42;;;;;;;4.13;2.80;;;;;;;;;;5051404;28;20566;-55
2024/02/25 04:58:09;;;;;;;5.15;2.88;;;;;;;;;;5050350;28;20052;-55
2024/02/25 05:00:36;;;;;;;5.68;2.65;;;;;;;;;;5050795;28;20095;-57
2024/02/25 05:03:04;;;;;;;5.53;2.70;;;;;;;;;;5050755;28;20053;-54
2024/02/25 05:05:31;;;;;;;5.40;2.97;;;;;;;;;;5054841;28;20101;-55
2024/02/25 05:07:58;;;;;;;4.00;2.55;;;;;;;;;;5054736;28;20073;-55
2024/02/25 05:10:25;;;;;;;3.78;2.10;;;;;;;;;;5053640;28;20124;-53
2024/02/25 05:12:53;;;;;;;4.10;2.22;;;;;;;;;;5055086;28;20128;-52
2024/02/25 05:15:19;;;;;;;4.50;2.40;;;;;;;;;;5054394;28;20115;-56
2024/02/25 05:17:46;;;;;;;4.80;2.67;;;;;;;;;;5054746;28;20100;-56
2024/02/25 05:20:14;;;;;;;4.43;2.42;;;;;;;;;;5054463;28;20111;-58
2024/02/25 05:22:40;;;;;;;4.75;2.40;;;;;;;;;;5054253;28;20049;-54
2024/02/25 05:25:08;;;;;;;5.07;2.58;;;;;;;;;;5054301;28;20455;-55
2024/02/25 05:27:37;;;;;;;4.00;2.38;;;;;;;;;;5054716;28;20493;-54
2024/02/25 05:30:06;;;;;;;5.47;2.85;;;;;;;;;;5054396;28;20392;-55
2024/02/25 05:32:35;;;;;;;5.38;2.58;;;;;;;;;;5054550;28;20064;-53
2024/02/25 05:35:02;;;;;;;7.13;3.25;;;;;;;;;;5054182;28;20487;-56
2024/02/25 05:37:28;;;;;;;5.18;3.17;;;;;;;;;;5054558;28;20049;-55
2024/02/25 05:39:55;;;;;;;6.45;2.92;;;;;;;;;;5053855;28;20045;-54
2024/02/25 05:42:22;;;;;;;4.55;2.63;;;;;;;;;;5053962;28;20492;-57
2024/02/25 05:44:49;;;;;;;5.43;2.58;;;;;;;;;;5053666;28;20095;-53
2024/02/25 05:47:17;;;;;;;4.85;2.22;;;;;;;;;;5058907;28;20182;-56
2024/02/25 05:49:44;;;;;;;3.40;2.00;;;;;;;;;;5053990;28;20049;-56
2024/02/25 05:52:10;;;;;;;3.53;2.03;;;;;;;;;;5053979;28;20106;-59
2024/02/25 05:54:37;;;;;;;3.95;2.25;;;;;;;;;;5037484;28;20499;-53
2024/02/25 05:57:04;;;;;;;4.45;2.30;;;;;;;;;;5053910;28;20433;-54
2024/02/25 05:59:31;;;;;;;4.60;2.10;;;;;;;;;;5053935;28;20502;-56
2024/02/25 06:01:58;;;;;;;3.70;2.28;;;;;;;;;;5061253;28;20420;-52
2024/02/25 06:04:26;;;;;;;5.20;2.42;;;;;;;;;;5053861;28;20500;-56
2024/02/25 06:06:54;;;;;;;3.50;2.28;;;;;;;;;;5054125;28;20083;-56
2024/02/25 06:09:21;;;;;;;3.65;1.92;;;;;;;;;;5053771;28;20044;-54
2024/02/25 06:11:48;;;;;;;4.75;2.53;;;;;;;;;;5054286;28;20132;-55
2024/02/25 06:14:15;;;;;;;3.67;2.00;;;;;;;;;;5058306;28;20128;-54
2024/02/25 06:16:43;;;;;;;3.03;2.00;;;;;;;;;;5052886;28;20053;-54
2024/02/25 06:19:10;;;;;;;5.43;2.00;;;;;;;;;;5053886;28;20471;-51
2024/02/25 06:21:38;;;;;;;4.40;1.98;;;;;;;;;;5053753;28;20088;-54
2024/02/25 06:24:05;;;;;;;3.33;2.00;;;;;;;;;;5053261;28;20080;-55
2024/02/25 06:26:32;;;;;;;3.53;1.80;;;;;;;;;;5053345;28;20053;-55
2024/02/25 06:28:59;;;;;;;4.45;2.15;;;;;;;;;;5053493;28;20099;-51
2024/02/25 06:31:26;;;;;;;3.22;2.05;;;;;;;;;;5053682;28;20099;-51
2024/02/25 06:33:53;;;;;;;4.63;2.00;;;;;;;;;;5053172;28;20045;-57
2024/02/25 06:36:20;;;;;;;4.00;1.90;;;;;;;;;;5053422;28;20075;-52
2024/02/25 06:38:48;;;;;;;3.20;1.73;;;;;;;;;;5047735;28;20057;-54
2024/02/25 06:41:18;;;;;;;4.45;1.83;;;;;;;;;;5053081;28;20077;-55
2024/02/25 06:43:45;;;;;;;3.90;2.20;;;;;;;;;;5053179;28;20083;-56
2024/02/25 06:46:12;;;;;;;4.28;1.83;;;;;;;;;;5053322;28;20131;-56
2024/02/25 06:48:38;;;;;;;4.72;2.20;;;;;;;;;;5053276;28;20137;-55
2024/02/25 06:51:05;;;;;;;4.15;2.10;;;;;;;;;;5053236;28;20647;-52
2024/02/25 06:53:33;;;;;;;5.03;2.17;;;;;;;;;;5052857;28;20061;-56
2024/02/25 06:56:01;;;;;;;4.70;2.20;;;;;;;;;;5053499;28;20527;-55
2024/02/25 06:58:28;;;;;;;4.22;2.10;;;;;;;;;;5053430;28;20080;-54
2024/02/25 07:00:55;;;;;;;3.80;2.10;;;;;;;;;;5052913;28;20084;-55
2024/02/25 07:03:22;;;;;;;5.22;2.15;;;;;;;;;;5052706;28;20132;-53
2024/02/25 07:05:48;;;;;;;4.07;2.10;;;;;;;;;;5053435;28;20508;-57
2024/02/25 07:08:15;;;;;;;3.53;1.80;;;;;;;;;;5053101;28;20099;-56
2024/02/25 07:10:42;;;;;;;3.47;2.13;;;;;;;;;;5053315;28;20114;-56
2024/02/25 07:13:10;;;;;;;3.72;2.05;;;;;;;;;;5055352;28;20080;-57
2024/02/25 07:15:36;;;;;;;4.40;2.10;;;;;;;;;;5052692;28;20080;-56
2024/02/25 07:18:03;;;;;;;4.00;2.10;;;;;;;;;;5053018;28;20460;-55
2024/02/25 07:20:30;;;;;;;3.50;1.80;;;;;;;;;;5052681;28;20516;-51
2024/02/25 07:22:57;;;;;;;3.17;1.88;;;;;;;;;;5052902;28;20610;-54
2024/02/25 07:25:23;;;;;;;4.45;1.98;;;;;;;;;;5048885;28;20080;-55
2024/02/25 07:27:50;;;;;;;3.40;1.85;;;;;;;;;;5045470;28;20088;-57
2024/02/25 07:30:19;;;;;;;3.38;2.05;;;;;;;;;;5052309;28;20060;-53
2024/02/25 07:32:46;;;;;;;2.80;1.80;;;;;;;;;;5052787;28;20080;-58
2024/02/25 07:35:12;;;;;;;3.78;1.77;;;;;;;;;;5052355;28;20049;-57
2024/02/25 07:37:39;;;;;;;3.72;1.80;;;;;;;;;;5054303;28;20122;-54
2024/02/25 07:40:09;;;;;;;4.72;1.90;;;;;;;;;;5052259;28;20102;-58
2024/02/25 07:42:36;;;;;;;4.10;1.77;;;;;;;;;;5052532;28;20081;-61
2024/02/25 07:45:03;;;;;;;4.47;2.20;;;;;;;;;;5052577;28;20467;-56
2024/02/25 07:47:31;;;;;;;4.75;2.50;;;;;;;;;;5052636;28;20048;-56
2024/02/25 07:49:59;;;;;;;4.68;2.45;;;;;;;;;;5052989;28;20052;-55
2024/02/25 07:52:26;;;;;;;5.20;2.78;;;;;;;;;;5052574;28;20508;-55
2024/02/25 07:54:52;;;;;;;5.50;2.53;;;;;;;;;;5052277;28;20123;-57
2024/02/25 07:57:19;;;;;;;3.92;2.20;;;;;;;;;;5055687;28;20083;-55
2024/02/25 07:59:46;;;;;;;4.45;2.38;;;;;;;;;;5057345;28;20044;-59
2024/02/25 08:02:13;;;;;;;4.65;2.88;;;;;;;;;;5056089;28;20484;-57
2024/02/25 08:04:41;;;;;;;5.28;3.08;;;;;;;;;;5054416;28;20049;-58
2024/02/25 08:07:10;;;;;;;4.35;2.92;;;;;;;;;;5055474;28;20063;-59
2024/02/25 08:09:36;;;;;;;4.35;2.53;;;;;;;;;;5051996;28;20052;-57
2024/02/25 08:12:04;;;;;;;3.53;2.20;;;;;;;;;;5052134;28;20124;-55
2024/02/25 08:14:30;;;;;;;4.30;2.20;;;;;;;;;;5051554;28;20084;-55
2024/02/25 08:16:57;;;;;;;4.20;2.30;;;;;;;;;;5046659;28;20045;-53
2024/02/25 08:19:24;;;;;;;3.42;2.17;;;;;;;;;;5049313;28;20055;-58
2024/02/25 08:21:52;;;;;;;4.32;2.63;;;;;;;;;;5051345;28;20511;-53
2024/02/25 08:24:19;;;;;;;4.88;2.58;;;;;;;;;;5051391;28;20550;-55
2024/02/25 08:26:45;;;;;;;4.45;2.60;;;;;;;;;;5051618;28;20496;-51
2024/02/25 08:29:12;;;;;;;4.82;2.88;;;;;;;;;;5050535;28;20132;-50
2024/02/25 08:31:40;;;;;;;5.03;2.83;;;;;;;;;;5043170;28;20084;-52
2024/02/25 08:34:08;;;;;;;5.25;3.33;;;;;;;;;;5051083;28;20468;-55
2024/02/25 08:36:35;;;;;;;5.80;3.20;;;;;;;;;;5051447;28;20484;-58
2024/02/25 08:39:05;;;;;;;4.68;2.58;;;;;;;;;;5054105;28;20135;-53
2024/02/25 08:41:31;;;;;;;3.58;2.20;;;;;;;;;;5051320;28;20300;-58
2024/02/25 08:43:58;;;;;;;3.42;1.80;;;;;;;;;;5051265;28;20087;-54
2024/02/25 08:46:25;;;;;;;3.53;1.65;;;;;;;;;;5051007;28;20095;-51
2024/02/25 08:48:51;;;;;;;4.95;2.35;;;;;;;;;;5051169;28;20080;-54
2024/02/25 08:51:18;;;;;;;3.85;2.00;;;;;;;;;;5051108;28;20077;-61
2024/02/25 08:53:45;;;;;;;4.97;2.40;;;;;;;;;;5049374;28;20076;-52
2024/02/25 08:56:13;;;;;;;3.17;1.85;;;;;;;;;;5051179;28;20045;-55
2024/02/25 08:58:40;;;;;;;2.83;1.70;;;;;;;;;;5051363;28;20524;-52
2024/02/25 09:01:07;;;;;;;3.38;2.05;;;;;;;;;;5050790;28;20049;-52
2024/02/25 09:03:33;;;;;;;3.67;2.20;;;;;;;;;;5050575;28;20049;-52
2024/02/25 09:06:00;;;;;;;3.67;2.15;;;;;;;;;;5051322;28;20072;-52
2024/02/25 09:08:27;;;;;;;5.00;2.50;;;;;;;;;;5051056;28;20091;-55
2024/02/25 09:10:53;;;;;;;4.88;2.90;;;;;;;;;;5050640;28;20045;-55
2024/02/25 09:13:22;;;;;;;3.83;2.38;;;;;;;;;;5050557;28;20065;-52
2024/02/25 09:15:49;;;;;;;3.88;2.15;;;;;;;;;;5050931;28;20044;-55
2024/02/25 09:18:16;;;;;;;3.05;1.48;;;;;;;;;;5046738;28;20069;-53
2024/02/25 09:20:42;;;;;;;4.35;1.92;;;;;;;;;;5050988;28;20076;-54
2024/02/25 09:23:09;;;;;;;3.28;1.85;;;;;;;;;;5052987;28;20123;-57
2024/02/25 09:25:36;;;;;;;3.22;1.90;;;;;;;;;;5051118;28;20467;-53
2024/02/25 09:28:03;;;;;;;3.67;1.30;;;;;;;;;;5050892;28;20056;-56
2024/02/25 09:30:32;;;;;;;2.47;1.20;;;;;;;;;;5050888;28;20131;-55
2024/02/25 09:32:59;;;;;;;2.10;1.10;;;;;;;;;;5050676;28;20045;-56
2024/02/25 09:35:25;;;;;;;2.65;1.30;;;;;;;;;;5052398;28;20561;-58
2024/02/25 09:37:52;;;;;;;3.13;1.20;;;;;;;;;;5050227;28;20088;-56
2024/02/25 09:40:19;;;;;;;3.55;1.20;;;;;;;;;;5051088;28;20045;-56
2024/02/25 09:42:46;;;;;;;2.35;1.00;;;;;;;;;;5050849;28;20076;-52
2024/02/25 09:45:21;;;;;;;2.83;1.20;;;;;;;;;;5050755;28;20069;-56
2024/02/25 09:47:50;;;;;;;1.90;1.10;;;;;;;;;;5050802;28;20055;-51
2024/02/25 09:50:18;;;;;;;2.95;1.30;;;;;;;;;;5052733;28;20128;-55
2024/02/25 09:52:46;;;;;;;1.67;0.80;;;;;;;;;;5054263;28;20087;-55
2024/02/25 09:55:13;;;;;;;2.22;1.00;;;;;;;;;;5053864;28;20045;-59
2024/02/25 09:57:40;;;;;;;2.22;1.48;;;;;;;;;;5054373;28;20084;-55
2024/02/25 10:00:09;;;;;;;2.30;1.00;;;;;;;;;;5054155;28;20076;-55
2024/02/25 10:02:35;;;;;;;2.88;0.88;;;;;;;;;;5054062;28;20080;-56
2024/02/25 10:05:04;;;;;;;1.27;0.80;;;;;;;;;;5054085;28;20508;-57
2024/02/25 10:07:31;;;;;;;1.33;0.90;;;;;;;;;;5053954;28;20520;-55
2024/02/25 10:09:58;;;;;;;1.48;0.80;;;;;;;;;;5053763;28;20045;-58
2024/02/25 10:12:25;;;;;;;1.40;0.80;;;;;;;;;;5054123;28;20476;-51
2024/02/25 10:14:53;;;;;;;1.65;0.65;;;;;;;;;;5053651;28;20425;-57
2024/02/25 10:17:22;;;;;;;1.05;0.55;;;;;;;;;;5053872;28;20049;-58
2024/02/25 10:19:53;;;;;;;2.35;0.90;;;;;;;;;;5054010;28;20067;-58
2024/02/25 10:22:24;;;;;;;2.40;0.95;;;;;;;;;;5053676;28;20045;-55
2024/02/25 10:24:50;;;;;;;1.70;0.70;;;;;;;;;;5053855;28;20049;-55
2024/02/25 10:27:19;;;;;;;0.85;0.57;;;;;;;;;;5053662;28;20130;-55
2024/02/25 10:29:54;;;;;;;0.98;0.50;;;;;;;;;;5053786;28;20049;-53
2024/02/25 10:32:25;;;;;;;1.70;0.93;;;;;;;;;;5053540;28;20455;-59
2024/02/25 10:34:52;;;;;;;1.73;0.75;;;;;;;;;;5054595;28;20124;-58
2024/02/25 10:37:22;;;;;;;1.27;0.90;;;;;;;;;;5056373;28;20055;-59
2024/02/25 10:39:53;;;;;;;1.10;0.70;;;;;;;;;;5053602;28;20049;-55
2024/02/25 10:42:22;;;;;;;;;;;;;;;;;;5053899;28;20051;-58
2024/02/25 10:44:50;;;;;;;0.77;0.75;;;;;;;;;;5055802;28;20007;-56
2024/02/25 10:47:18;;;;;;;1.60;0.70;;;;;;;;;;5052057;28;20120;-53
2024/02/25 10:49:46;;;;;;;1.25;0.60;;;;;;;;;;5052572;28;20049;-53
2024/02/25 10:52:14;;;;;;;1.35;0.50;;;;;;;;;;5053026;28;20486;-53
2024/02/25 10:54:46;;;;;;;1.80;0.75;;;;;;;;;;5056120;28;20073;-52
2024/02/25 10:57:13;;;;;;;1.33;0.80;;;;;;;;;;5049642;28;20049;-59
2024/02/25 10:59:40;;;;;;;1.10;0.55;;;;;;;;;;5052974;28;20102;-57
2024/02/25 11:02:09;;;;;;;0.55;0.50;;;;;;;;;;5055386;28;20536;-50
2024/02/25 11:04:36;;;;;;;0.95;0.60;;;;;;;;;;5051561;28;20081;-56
2024/02/25 11:07:05;;;;;;;2.15;0.70;;;;;;;;;;5051449;28;20072;-52
2024/02/25 11:09:32;;;;;;;1.75;0.70;;;;;;;;;;5057393;28;20049;-63
2024/02/25 11:12:19;;;;;;;1.95;0.60;;;;;;;;;;5057202;28;20570;-55
2024/02/25 11:14:50;;;;;;;1.75;0.60;;;;;;;;;;5054725;28;20128;-58
2024/02/25 11:17:18;;;;;;;0.73;0.60;;;;;;;;;;5053850;28;20047;-57
2024/02/25 11:20:08;;;;;;;1.63;0.82;;;;;;;;;;5051611;28;20076;-57
2024/02/25 11:22:39;;;;;;;1.38;0.68;;;;;;;;;;5058516;28;20081;-53
2024/02/25 11:25:05;;;;;;;;;;;;;;;;;;5052519;28;20401;-54
2024/02/25 11:27:54;;;;;;;1.52;0.60;;;;;;;;;;5052412;28;19971;-55
2024/02/25 11:30:34;;;;;;;2.92;0.70;;;;;;;;;;5043429;28;20143;-51
2024/02/25 11:33:00;;;;;;;2.25;0.80;;;;;;;;;;5052652;28;20080;-54
2024/02/25 11:35:30;;;;;;;2.00;0.90;;;;;;;;;;5050361;28;20120;-53
2024/02/25 11:37:59;;;;;;;3.20;1.38;;;;;;;;;;5052788;28;20385;-53
2024/02/25 11:40:26;;;;;;;2.72;0.80;;;;;;;;;;5052726;28;20077;-56
2024/02/25 11:42:54;;;;;;;3.45;1.55;;;;;;;;;;5052726;28;20080;-55
2024/02/25 11:45:20;;;;;;;2.97;1.10;;;;;;;;;;5052140;28;20081;-55
2024/02/25 11:47:49;;;;;;;2.33;0.88;;;;;;;;;;5044688;28;20484;-64
2024/02/25 11:50:16;;;;;;;3.40;1.00;;;;;;;;;;5049718;28;20056;-62
2024/02/25 11:52:58;;;;;;;1.70;0.80;;;;;;;;;;5051841;28;20090;-52
2024/02/25 11:55:26;;;;;;;2.72;1.10;;;;;;;;;;5052139;28;20083;-53
2024/02/25 11:57:54;;;;;;;2.67;1.13;;;;;;;;;;5052347;28;20108;-50
2024/02/25 12:00:21;;;;;;;2.38;0.90;;;;;;;;;;5051916;28;20064;-51
2024/02/25 12:02:48;;;;;;;2.50;0.65;;;;;;;;;;5049815;28;20045;-55
2024/02/25 12:05:15;;;;;;;0.88;0.60;;;;;;;;;;5051788;28;20132;-51
2024/02/25 12:07:42;;;;;;;1.10;0.68;;;;;;;;;;5052243;28;20087;-54
2024/02/25 12:10:10;;;;;;;2.33;0.80;;;;;;;;;;5052049;28;20510;-55
2024/02/25 12:12:37;;;;;;;2.05;0.70;;;;;;;;;;5051558;28;20459;-52
2024/02/25 12:15:06;;;;;;;1.05;0.60;;;;;;;;;;5045247;28;20246;-56
2024/02/25 12:17:33;;;;;;;1.60;0.70;;;;;;;;;;5034435;28;20168;-52
2024/02/25 12:20:01;;;;;;;0.95;0.70;;;;;;;;;;5051679;28;20088;-56
2024/02/25 12:22:29;;;;;;;0.55;0.50;;;;;;;;;;5048477;28;20061;-57
2024/02/25 12:24:56;;;;;;;1.88;0.82;;;;;;;;;;5050389;28;20051;-56
2024/02/25 12:27:23;;;;;;;1.67;0.90;;;;;;;;;;5050551;28;20508;-56
2024/02/25 12:29:50;;;;;;;3.13;0.90;;;;;;;;;;5056449;28;20076;-54
2024/02/25 12:32:20;;;;;;;1.23;0.70;;;;;;;;;;5048541;28;20496;-64
2024/02/25 12:34:47;;;;;;;2.10;1.10;;;;;;;;;;5056986;28;20098;-56
2024/02/25 12:37:14;;;;;;;4.80;1.90;;;;;;;;;;5044453;28;20370;-62
2024/02/25 12:39:42;;;;;;;15.27;6.60;;;;;;;;;;5049825;28;20095;-57
2024/02/25 12:42:09;;;;;;;3.25;1.50;;;;;;;;;;5052519;28;20037;-56
2024/02/25 12:44:36;;;;;;;1.88;1.15;;;;;;;;;;5051839;28;20053;-54
2024/02/25 12:47:03;;;;;;;5.00;1.38;;;;;;;;;;5059697;28;20102;-59
2024/02/25 12:49:32;;;;;;;3.05;1.02;;;;;;;;;;5052120;28;20528;-55
2024/02/25 12:51:59;;;;;;;5.60;2.55;;;;;;;;;;5056366;28;20127;-56
2024/02/25 12:54:27;;;;;;;2.35;1.00;;;;;;;;;;5052488;28;20072;-58
2024/02/25 12:56:55;;;;;;;9.00;2.85;;;;;;;;;;5056810;28;20048;-55
2024/02/25 12:59:22;;;;;;;2.17;1.10;;;;;;;;;;5053235;28;20052;-56
2024/02/25 13:01:48;;;;;;;3.53;1.45;;;;;;;;;;5047283;28;20052;-55
2024/02/25 13:04:15;;;;;;;3.53;1.40;;;;;;;;;;5052060;28;20431;-54
2024/02/25 13:06:44;;;;;;;2.55;1.00;;;;;;;;;;5053163;28;20107;-59
2024/02/25 13:09:11;;;;;;;2.45;1.33;;;;;;;;;;5052619;28;20084;-58
2024/02/25 13:11:40;;;;;;;2.22;1.10;;;;;;;;;;5051396;28;20055;-57
2024/02/25 13:14:07;;;;;;;1.60;0.90;;;;;;;;;;5052835;28;20533;-54
2024/02/25 13:16:36;;;;;;;2.78;1.35;;;;;;;;;;5053062;28;20088;-57
2024/02/25 13:19:03;;;;;;;2.45;1.05;;;;;;;;;;5055741;28;20041;-56
2024/02/25 13:21:29;;;;;;;2.83;1.17;;;;;;;;;;5055347;28;20144;-56
2024/02/25 13:23:57;;;;;;;3.60;1.42;;;;;;;;;;5053572;28;20136;-56
2024/02/25 13:26:24;;;;;;;2.55;1.10;;;;;;;;;;5054351;28;20110;-52
2024/02/25 13:28:52;;;;;;;2.60;0.90;;;;;;;;;;5055874;28;20048;-58
2024/02/25 13:31:18;;;;;;;2.05;1.05;;;;;;;;;;5059037;28;20068;-53
2024/02/25 13:33:45;;;;;;;4.85;1.85;;;;;;;;;;5058162;28;20473;-58
2024/02/25 13:36:22;;;;;;;2.67;1.10;;;;;;;;;;5059234;28;20078;-54
2024/02/25 13:38:50;;;;;;;2.05;1.10;;;;;;;;;;5059699;28;20400;-55
2024/02/25 13:41:18;;;;;;;2.22;1.05;;;;;;;;;;5054783;28;20064;-54
2024/02/25 13:43:47;;;;;;;1.80;0.98;;;;;;;;;;5061022;28;20044;-56
2024/02/25 13:46:16;;;;;;;3.17;1.10;;;;;;;;;;5059256;28;20049;-54
2024/02/25 13:48:43;;;;;;;2.30;1.00;;;;;;;;;;5054376;28;20127;-62
2024/02/25 13:51:10;;;;;;;2.35;1.17;;;;;;;;;;5056585;28;20049;-58
2024/02/25 13:53:37;;;;;;;2.25;1.23;;;;;;;;;;5055853;28;20567;-58
2024/02/25 13:56:05;;;;;;;2.50;1.27;;;;;;;;;;5058794;28;20045;-55
2024/02/25 13:58:33;;;;;;;3.20;1.58;;;;;;;;;;5056514;28;20598;-57
2024/02/25 14:01:00;;;;;;;2.22;1.05;;;;;;;;;;5061929;28;20055;-56
2024/02/25 14:03:27;;;;;;;2.08;1.10;;;;;;;;;;5060196;28;20102;-57
2024/02/25 14:05:54;;;;;;;1.58;1.02;;;;;;;;;;5055287;28;20110;-57
2024/02/25 14:08:20;;;;;;;2.78;1.17;;;;;;;;;;5052732;28;20120;-55
2024/02/25 14:10:47;;;;;;;1.35;0.85;;;;;;;;;;5054010;28;20052;-57
2024/02/25 14:13:14;;;;;;;2.10;1.33;;;;;;;;;;5053120;28;20537;-54
2024/02/25 14:15:42;;;;;;;2.35;1.10;;;;;;;;;;5053905;28;20045;-54
2024/02/25 14:18:09;;;;;;;1.65;1.13;;;;;;;;;;5053595;28;20077;-55
2024/02/25 14:20:37;;;;;;;2.08;1.10;;;;;;;;;;5053694;28;20128;-56
2024/02/25 14:23:07;;;;;;;1.58;1.08;;;;;;;;;;5053936;28;20067;-58
2024/02/25 14:25:34;;;;;;;2.13;1.30;;;;;;;;;;5053409;28;20756;-56
2024/02/25 14:28:02;;;;;;;2.17;1.10;;;;;;;;;;5053742;28;20045;-55
2024/02/25 14:30:29;;;;;;;2.08;1.02;;;;;;;;;;5053411;28;20096;-53
2024/02/25 14:32:57;;;;;;;1.70;0.98;;;;;;;;;;5053323;28;20132;-54
2024/02/25 14:35:24;;;;;;;1.52;0.90;;;;;;;;;;5053238;28;20140;-51
2024/02/25 14:37:51;;;;;;;2.38;1.20;;;;;;;;;;5052519;28;20080;-57
2024/02/25 14:40:17;;;;;;;1.65;0.85;;;;;;;;;;5053323;28;20477;-58
2024/02/25 14:42:44;;;;;;;2.25;0.90;;;;;;;;;;5053373;28;20144;-53
2024/02/25 14:45:11;;;;;;;1.95;0.93;;;;;;;;;;5053040;28;20081;-55